GCXO/TFN METAR and TAF weather

Enter ICAO airport designator
Station Type Date Time Source
GCXO METAR 2018/04/27 01:00 UTC NOAA

GCXO 270100Z AUTO 29018KT 9000 OVC006/// 13/12 Q1021


Station Type Date Time Source
GCXO Decoded METAR 2018/04/27 01:00 UTC NOAA

Tenerife / Los Rodeos, Spain (GCXO) 28-28N 016-19W 617M
Apr 26, 2018 - 09:00 PM EDT / 2018.04.27 0100 UTC
Wind: from the WNW (290 degrees) at 21 MPH (18 KT):0
Visibility: 5 mile(s):0
Sky conditions: overcast
Temperature: 55 F (13 C)
Dew Point: 53 F (12 C)
Relative Humidity: 93%
Pressure (altimeter): 30.15 in. Hg (1021 hPa)
ob: GCXO 270100Z AUTO 29018KT 9000 OVC006/// 13/12 Q1021
cycle: 1

Station Type Date Time Source
GCXO TAF 2018/04/26 21:27 UTC NOAA

TAF GCXO 262000Z 2621/2721 30017KT 9999 FEW003 BKN007 TX15/2714Z TN12/2705Z
TEMPO 2621/2708 3000 BCFG BKN003 PROB40
TEMPO 2621/2708 0800 FG


Example: see airport list